AAL2299 KDCA-KPBI
Flight info
| Callsign | AAL2299 |
|---|---|
| Flight time | 2h 13m |
| Altitude | 32000 |
| Route | AMEEE1 SCOOB PAACK Q97 KENLL CPTAN3 |
| Aircraft | B738/M-SDE2E3FGHIRWXY/LB1 |
Departure
| Time | 2026-05-03 21:50 |
|---|---|
| Airport | Ronald Reagan Washington National Airport (KDCA) |
Arrival
| Time | 2026-05-04 00:04 |
|---|---|
| Airport | Palm Beach International Airport (KPBI) |
| Time | Latitude | Longitude | Altitude | Speed | Heading |
|---|---|---|---|---|---|
| 2026-05-03 21:18 | 38.85445 | -77.04238 | 23 ft | 0 kts | 162° |
| 2026-05-03 21:36 | 38.85456 | -77.04242 | 28 ft | 4 kts | 162° |
| 2026-05-03 21:36 | 38.85477 | -77.04251 | 27 ft | 4 kts | 158° |
| 2026-05-03 21:36 | 38.85491 | -77.04267 | 27 ft | 4 kts | 85° |
| 2026-05-03 21:36 | 38.85492 | -77.04271 | 27 ft | 4 kts | 72° |
| 2026-05-03 21:37 | 38.85497 | -77.04252 | 25 ft | 0 kts | 72° |
| 2026-05-03 21:39 | 38.85501 | -77.04234 | 25 ft | 5 kts | 72° |
| 2026-05-03 21:39 | 38.85517 | -77.04172 | 27 ft | 8 kts | 72° |
| 2026-05-03 21:39 | 38.85533 | -77.04106 | 25 ft | 8 kts | 72° |
| 2026-05-03 21:40 | 38.85549 | -77.04042 | 23 ft | 8 kts | 72° |
| 2026-05-03 21:40 | 38.85558 | -77.03975 | 23 ft | 6 kts | 101° |
| 2026-05-03 21:40 | 38.85525 | -77.03954 | 25 ft | 6 kts | 176° |
| 2026-05-03 21:40 | 38.85470 | -77.03949 | 24 ft | 11 kts | 175° |
| 2026-05-03 21:41 | 38.85392 | -77.03941 | 25 ft | 12 kts | 176° |
| 2026-05-03 21:41 | 38.85296 | -77.03932 | 25 ft | 15 kts | 175° |
| 2026-05-03 21:41 | 38.85192 | -77.03921 | 24 ft | 15 kts | 175° |
| 2026-05-03 21:41 | 38.85084 | -77.03910 | 23 ft | 18 kts | 175° |
| 2026-05-03 21:42 | 38.84955 | -77.03897 | 24 ft | 18 kts | 175° |
| 2026-05-03 21:42 | 38.84829 | -77.03884 | 24 ft | 18 kts | 175° |
| 2026-05-03 21:42 | 38.84707 | -77.03872 | 26 ft | 17 kts | 175° |
| 2026-05-03 21:42 | 38.84590 | -77.03860 | 25 ft | 17 kts | 175° |
| 2026-05-03 21:43 | 38.84477 | -77.03849 | 24 ft | 16 kts | 176° |
| 2026-05-03 21:43 | 38.84368 | -77.03838 | 25 ft | 15 kts | 175° |
| 2026-05-03 21:43 | 38.84266 | -77.03827 | 25 ft | 13 kts | 171° |
| 2026-05-03 21:43 | 38.84228 | -77.03794 | 23 ft | 3 kts | 128° |
| 2026-05-03 21:44 | 38.84221 | -77.03783 | 23 ft | 0 kts | 124° |
| 2026-05-03 21:45 | 38.84220 | -77.03780 | 23 ft | 1 kts | 124° |
| 2026-05-03 21:45 | 38.84203 | -77.03749 | 24 ft | 9 kts | 125° |
| 2026-05-03 21:46 | 38.84178 | -77.03691 | 24 ft | 2 kts | 84° |
| 2026-05-03 21:46 | 38.84202 | -77.03682 | 24 ft | 6 kts | 1° |
| 2026-05-03 21:46 | 38.84224 | -77.03683 | 25 ft | 0 kts | 356° |
| 2026-05-03 21:49 | 38.84243 | -77.03685 | 23 ft | 6 kts | 355° |
| 2026-05-03 21:50 | 38.84490 | -77.03710 | 24 ft | 72 kts | 356° |
| 2026-05-03 21:50 | 38.85225 | -77.03783 | 22 ft | 138 kts | 356° |
| 2026-05-03 21:50 | 38.86341 | -77.03864 | 267 ft | 168 kts | 351° |
| 2026-05-03 21:50 | 38.87467 | -77.04122 | 1045 ft | 163 kts | 335° |
| 2026-05-03 21:51 | 38.88438 | -77.04790 | 1873 ft | 157 kts | 321° |
| 2026-05-03 21:51 | 38.89269 | -77.05803 | 2279 ft | 174 kts | 309° |
| 2026-05-03 21:51 | 38.90043 | -77.07109 | 2535 ft | 196 kts | 303° |
| 2026-05-03 21:51 | 38.90771 | -77.08695 | 2723 ft | 217 kts | 298° |
| 2026-05-03 21:52 | 38.91525 | -77.10492 | 2993 ft | 238 kts | 303° |
| 2026-05-03 21:52 | 38.92785 | -77.11909 | 3590 ft | 246 kts | 327° |
| 2026-05-03 21:52 | 38.94258 | -77.13076 | 4266 ft | 250 kts | 325° |
| 2026-05-03 21:52 | 38.95766 | -77.14186 | 5043 ft | 249 kts | 330° |
| 2026-05-03 21:53 | 38.97420 | -77.14941 | 5649 ft | 259 kts | 352° |
| 2026-05-03 21:53 | 38.99214 | -77.14659 | 6484 ft | 264 kts | 15° |
| 2026-05-03 21:53 | 39.00828 | -77.13459 | 7147 ft | 274 kts | 34° |
| 2026-05-03 21:53 | 39.02331 | -77.11914 | 7818 ft | 279 kts | 35° |
| 2026-05-03 21:54 | 39.03611 | -77.10004 | 8471 ft | 292 kts | 60° |
| 2026-05-03 21:54 | 39.04042 | -77.07393 | 9210 ft | 302 kts | 89° |
| 2026-05-03 21:54 | 39.03845 | -77.04677 | 9941 ft | 308 kts | 94° |
| 2026-05-03 21:54 | 39.03589 | -77.01893 | 10370 ft | 323 kts | 94° |
| 2026-05-03 21:55 | 39.03292 | -76.98924 | 10526 ft | 347 kts | 100° |
| 2026-05-03 21:55 | 39.02308 | -76.96002 | 10671 ft | 370 kts | 127° |
| 2026-05-03 21:55 | 39.00338 | -76.93821 | 10968 ft | 381 kts | 155° |
| 2026-05-03 21:55 | 38.97833 | -76.92688 | 11569 ft | 382 kts | 167° |
| 2026-05-03 21:56 | 38.95270 | -76.91746 | 12246 ft | 385 kts | 168° |
| 2026-05-03 21:56 | 38.92679 | -76.90814 | 12954 ft | 388 kts | 168° |
| 2026-05-03 21:56 | 38.90067 | -76.89868 | 13649 ft | 392 kts | 168° |
| 2026-05-03 21:56 | 38.87431 | -76.88900 | 14303 ft | 396 kts | 168° |
| 2026-05-03 21:57 | 38.84774 | -76.87911 | 14968 ft | 399 kts | 168° |
| 2026-05-03 21:57 | 38.82099 | -76.86906 | 15644 ft | 401 kts | 169° |
| 2026-05-03 21:57 | 38.79410 | -76.85891 | 16338 ft | 404 kts | 169° |
| 2026-05-03 21:57 | 38.76703 | -76.84867 | 17011 ft | 407 kts | 169° |
| 2026-05-03 21:58 | 38.74899 | -76.84185 | 17439 ft | 409 kts | 169° |
| 2026-05-03 21:58 | 38.72154 | -76.83147 | 18094 ft | 413 kts | 169° |
| 2026-05-03 21:58 | 38.69390 | -76.82103 | 18667 ft | 416 kts | 169° |
| 2026-05-03 21:58 | 38.66590 | -76.81047 | 19197 ft | 421 kts | 170° |
| 2026-05-03 21:59 | 38.62832 | -76.79631 | 19847 ft | 428 kts | 170° |
| 2026-05-03 21:59 | 38.59961 | -76.78549 | 20315 ft | 432 kts | 170° |
| 2026-05-03 21:59 | 38.58002 | -76.77812 | 20578 ft | 437 kts | 170° |
| 2026-05-03 21:59 | 38.55064 | -76.76708 | 20999 ft | 443 kts | 170° |
| 2026-05-03 22:00 | 38.52130 | -76.75604 | 21483 ft | 447 kts | 170° |
| 2026-05-03 22:00 | 38.49134 | -76.74476 | 21932 ft | 451 kts | 170° |
| 2026-05-03 22:00 | 38.46105 | -76.73338 | 22373 ft | 456 kts | 170° |
| 2026-05-03 22:00 | 38.43045 | -76.72191 | 22816 ft | 460 kts | 171° |
| 2026-05-03 22:01 | 38.39950 | -76.71097 | 23246 ft | 461 kts | 175° |
| 2026-05-03 22:01 | 38.36797 | -76.70414 | 23663 ft | 459 kts | 180° |
| 2026-05-03 22:01 | 38.33610 | -76.69959 | 23924 ft | 463 kts | 182° |
| 2026-05-03 22:01 | 38.30387 | -76.69558 | 24303 ft | 466 kts | 182° |
| 2026-05-03 22:02 | 38.27164 | -76.69130 | 24797 ft | 466 kts | 182° |
| 2026-05-03 22:02 | 38.23944 | -76.68659 | 25284 ft | 466 kts | 181° |
| 2026-05-03 22:02 | 38.20715 | -76.68152 | 25694 ft | 468 kts | 181° |
| 2026-05-03 22:02 | 38.17479 | -76.67628 | 26070 ft | 470 kts | 181° |
| 2026-05-03 22:03 | 38.14222 | -76.67098 | 26442 ft | 472 kts | 181° |
| 2026-05-03 22:03 | 38.10958 | -76.66571 | 26799 ft | 473 kts | 181° |
| 2026-05-03 22:03 | 38.07697 | -76.66128 | 27229 ft | 469 kts | 185° |
| 2026-05-03 22:03 | 38.04443 | -76.65866 | 27606 ft | 468 kts | 186° |
| 2026-05-03 22:04 | 38.01184 | -76.65686 | 27945 ft | 469 kts | 187° |
| 2026-05-03 22:04 | 37.97912 | -76.65524 | 28270 ft | 471 kts | 187° |
| 2026-05-03 22:04 | 37.94634 | -76.65349 | 28638 ft | 473 kts | 187° |
| 2026-05-03 22:04 | 37.91344 | -76.65154 | 28985 ft | 474 kts | 187° |
| 2026-05-03 22:05 | 37.88040 | -76.64942 | 29329 ft | 474 kts | 187° |
| 2026-05-03 22:05 | 37.84754 | -76.64719 | 29874 ft | 471 kts | 187° |
| 2026-05-03 22:05 | 37.81501 | -76.64494 | 30400 ft | 466 kts | 187° |
| 2026-05-03 22:05 | 37.78266 | -76.64272 | 30801 ft | 464 kts | 187° |
| 2026-05-03 22:06 | 37.75046 | -76.64055 | 31131 ft | 463 kts | 188° |
| 2026-05-03 22:06 | 37.71826 | -76.63841 | 31440 ft | 463 kts | 188° |
| 2026-05-03 22:06 | 37.68607 | -76.63628 | 31780 ft | 462 kts | 188° |
| 2026-05-03 22:06 | 37.65403 | -76.63413 | 32167 ft | 460 kts | 188° |
| 2026-05-03 22:07 | 37.62210 | -76.63199 | 32544 ft | 458 kts | 188° |
| 2026-05-03 22:07 | 37.59049 | -76.63123 | 32852 ft | 446 kts | 197° |
| 2026-05-03 22:07 | 37.56132 | -76.63990 | 33145 ft | 424 kts | 209° |
| 2026-05-03 22:07 | 37.53333 | -76.65151 | 33457 ft | 424 kts | 209° |
| 2026-05-03 22:08 | 37.50527 | -76.66288 | 33794 ft | 423 kts | 209° |
| 2026-05-03 22:08 | 37.47721 | -76.67402 | 34130 ft | 422 kts | 208° |
| 2026-05-03 22:08 | 37.44922 | -76.68497 | 34407 ft | 421 kts | 208° |
| 2026-05-03 22:08 | 37.42127 | -76.69579 | 34654 ft | 419 kts | 208° |
| 2026-05-03 22:09 | 37.39347 | -76.70649 | 34936 ft | 417 kts | 208° |
| 2026-05-03 22:09 | 37.36573 | -76.71716 | 35185 ft | 417 kts | 208° |
| 2026-05-03 22:09 | 37.27192 | -76.75318 | 35910 ft | 417 kts | 208° |
| 2026-05-03 22:10 | 37.15183 | -76.79910 | 36922 ft | 412 kts | 208° |
| 2026-05-03 22:10 | 37.12440 | -76.80957 | 37146 ft | 412 kts | 208° |
| 2026-05-03 22:10 | 37.09700 | -76.82003 | 37332 ft | 412 kts | 208° |
| 2026-05-03 22:10 | 37.06958 | -76.83051 | 37503 ft | 412 kts | 208° |
| 2026-05-03 22:11 | 37.04212 | -76.84098 | 37702 ft | 412 kts | 208° |
| 2026-05-03 22:11 | 37.01472 | -76.85141 | 37916 ft | 411 kts | 208° |
| 2026-05-03 22:11 | 36.98734 | -76.86182 | 38085 ft | 412 kts | 208° |
| 2026-05-03 22:12 | 36.93240 | -76.88272 | 38072 ft | 412 kts | 208° |
| 2026-05-03 22:12 | 36.87771 | -76.90344 | 38077 ft | 410 kts | 208° |
| 2026-05-03 22:13 | 36.82325 | -76.92406 | 38079 ft | 408 kts | 208° |
| 2026-05-03 22:13 | 36.76903 | -76.94458 | 38084 ft | 406 kts | 208° |
| 2026-05-03 22:14 | 36.71535 | -76.96486 | 38089 ft | 405 kts | 208° |
| 2026-05-03 22:14 | 36.66145 | -76.98520 | 38086 ft | 404 kts | 208° |
| 2026-05-03 22:15 | 36.60752 | -77.00553 | 38077 ft | 405 kts | 208° |
| 2026-05-03 22:15 | 36.55356 | -77.02584 | 38093 ft | 406 kts | 208° |
| 2026-05-03 22:16 | 36.49946 | -77.04616 | 38075 ft | 406 kts | 208° |
| 2026-05-03 22:16 | 36.44537 | -77.06643 | 38087 ft | 406 kts | 208° |
| 2026-05-03 22:17 | 36.39119 | -77.08672 | 38082 ft | 407 kts | 208° |
| 2026-05-03 22:17 | 36.33687 | -77.10704 | 38081 ft | 407 kts | 208° |
| 2026-05-03 22:18 | 36.28259 | -77.12730 | 38046 ft | 407 kts | 207° |
| 2026-05-03 22:18 | 36.22841 | -77.14748 | 38077 ft | 406 kts | 208° |
| 2026-05-03 22:19 | 36.17441 | -77.16759 | 38081 ft | 405 kts | 208° |
| 2026-05-03 22:19 | 36.12088 | -77.18749 | 38086 ft | 404 kts | 208° |
| 2026-05-03 22:20 | 36.06714 | -77.20744 | 38094 ft | 403 kts | 208° |
| 2026-05-03 22:20 | 36.01367 | -77.22727 | 38089 ft | 400 kts | 208° |
| 2026-05-03 22:21 | 35.96049 | -77.24699 | 38090 ft | 397 kts | 209° |
| 2026-05-03 22:21 | 35.93521 | -77.25937 | 38091 ft | 386 kts | 216° |
| 2026-05-03 22:21 | 35.91189 | -77.27512 | 38083 ft | 378 kts | 221° |
| 2026-05-03 22:22 | 35.87062 | -77.31382 | 38087 ft | 372 kts | 226° |
| 2026-05-03 22:22 | 35.82989 | -77.35338 | 38054 ft | 373 kts | 226° |
| 2026-05-03 22:23 | 35.78899 | -77.39287 | 38078 ft | 374 kts | 226° |
| 2026-05-03 22:23 | 35.74786 | -77.43242 | 38087 ft | 376 kts | 226° |
| 2026-05-03 22:24 | 35.70657 | -77.47205 | 38085 ft | 377 kts | 226° |
| 2026-05-03 22:24 | 35.66510 | -77.51179 | 38085 ft | 378 kts | 226° |
| 2026-05-03 22:25 | 35.62357 | -77.55155 | 38086 ft | 379 kts | 226° |
| 2026-05-03 22:25 | 35.58204 | -77.59124 | 38083 ft | 377 kts | 226° |
| 2026-05-03 22:26 | 35.54066 | -77.63074 | 38105 ft | 376 kts | 226° |
| 2026-05-03 22:26 | 35.49932 | -77.67016 | 38094 ft | 376 kts | 226° |
| 2026-05-03 22:27 | 35.45827 | -77.70928 | 38094 ft | 376 kts | 226° |
| 2026-05-03 22:27 | 35.41696 | -77.74859 | 38096 ft | 376 kts | 226° |
| 2026-05-03 22:28 | 35.37566 | -77.78786 | 38092 ft | 376 kts | 226° |
| 2026-05-03 22:28 | 35.33437 | -77.82706 | 38106 ft | 375 kts | 226° |
| 2026-05-03 22:29 | 35.29308 | -77.86622 | 38108 ft | 375 kts | 226° |
| 2026-05-03 22:29 | 35.25179 | -77.90532 | 38101 ft | 375 kts | 226° |
| 2026-05-03 22:30 | 35.21048 | -77.94438 | 38105 ft | 375 kts | 226° |
| 2026-05-03 22:30 | 35.16914 | -77.98343 | 38097 ft | 375 kts | 225° |
| 2026-05-03 22:31 | 35.12782 | -78.02239 | 38091 ft | 375 kts | 225° |
| 2026-05-03 22:31 | 35.08658 | -78.06123 | 38090 ft | 374 kts | 225° |
| 2026-05-03 22:32 | 35.04528 | -78.10009 | 38097 ft | 374 kts | 225° |
| 2026-05-03 22:32 | 35.00422 | -78.13867 | 38093 ft | 375 kts | 225° |
| 2026-05-03 22:33 | 34.96291 | -78.17743 | 38091 ft | 374 kts | 225° |
| 2026-05-03 22:33 | 34.92162 | -78.21611 | 38031 ft | 374 kts | 225° |
| 2026-05-03 22:34 | 34.88048 | -78.25459 | 38076 ft | 372 kts | 225° |
| 2026-05-03 22:34 | 34.83951 | -78.29289 | 38087 ft | 371 kts | 225° |
| 2026-05-03 22:35 | 34.79862 | -78.33106 | 38094 ft | 370 kts | 225° |
| 2026-05-03 22:35 | 34.75776 | -78.36916 | 38090 ft | 370 kts | 225° |
| 2026-05-03 22:36 | 34.71692 | -78.40718 | 38091 ft | 370 kts | 225° |
| 2026-05-03 22:36 | 34.67638 | -78.44488 | 38088 ft | 368 kts | 225° |
| 2026-05-03 22:37 | 34.63576 | -78.48259 | 38102 ft | 367 kts | 225° |
| 2026-05-03 22:37 | 34.59526 | -78.52016 | 38101 ft | 366 kts | 225° |
| 2026-05-03 22:38 | 34.55482 | -78.55764 | 38100 ft | 366 kts | 225° |
| 2026-05-03 22:38 | 34.51438 | -78.59506 | 38102 ft | 365 kts | 225° |
| 2026-05-03 22:39 | 34.47399 | -78.63239 | 38101 ft | 365 kts | 225° |
| 2026-05-03 22:39 | 34.43361 | -78.66967 | 38108 ft | 364 kts | 225° |
| 2026-05-03 22:40 | 34.39325 | -78.70665 | 38117 ft | 365 kts | 224° |
| 2026-05-03 22:40 | 34.35125 | -78.74173 | 38125 ft | 367 kts | 223° |
| 2026-05-03 22:41 | 34.30896 | -78.77653 | 38104 ft | 368 kts | 223° |
| 2026-05-03 22:41 | 34.26679 | -78.81154 | 38100 ft | 368 kts | 223° |
| 2026-05-03 22:42 | 34.22463 | -78.84666 | 38043 ft | 368 kts | 223° |
| 2026-05-03 22:42 | 34.18291 | -78.88136 | 38088 ft | 366 kts | 223° |
| 2026-05-03 22:43 | 34.14107 | -78.91617 | 38100 ft | 365 kts | 223° |
| 2026-05-03 22:43 | 34.10608 | -78.94528 | 38106 ft | 364 kts | 223° |
| 2026-05-03 22:44 | 34.05758 | -78.98560 | 38105 ft | 364 kts | 223° |
| 2026-05-03 22:44 | 34.01589 | -79.02020 | 38110 ft | 364 kts | 223° |
| 2026-05-03 22:45 | 33.98095 | -79.04917 | 38071 ft | 363 kts | 223° |
| 2026-05-03 22:45 | 33.93938 | -79.08360 | 38109 ft | 363 kts | 223° |
| 2026-05-03 22:46 | 33.89777 | -79.11802 | 38107 ft | 363 kts | 223° |
| 2026-05-03 22:46 | 33.85608 | -79.15247 | 38113 ft | 363 kts | 223° |
| 2026-05-03 22:47 | 33.81440 | -79.18687 | 38115 ft | 364 kts | 223° |
| 2026-05-03 22:47 | 33.77263 | -79.22130 | 38111 ft | 364 kts | 223° |
| 2026-05-03 22:48 | 33.73084 | -79.25571 | 38090 ft | 363 kts | 223° |
| 2026-05-03 22:48 | 33.68924 | -79.28991 | 38118 ft | 362 kts | 223° |
| 2026-05-03 22:49 | 33.64793 | -79.32434 | 38112 ft | 361 kts | 223° |
| 2026-05-03 22:49 | 33.60732 | -79.35893 | 38120 ft | 360 kts | 224° |
| 2026-05-03 22:50 | 33.56641 | -79.39375 | 38127 ft | 360 kts | 223° |
| 2026-05-03 22:50 | 33.52519 | -79.42874 | 38147 ft | 360 kts | 223° |
| 2026-05-03 22:51 | 33.48445 | -79.46326 | 38111 ft | 361 kts | 223° |
| 2026-05-03 22:51 | 33.44341 | -79.49796 | 38127 ft | 361 kts | 223° |
| 2026-05-03 22:52 | 33.40233 | -79.53266 | 37913 ft | 363 kts | 223° |
| 2026-05-03 22:52 | 33.38342 | -79.54864 | 37682 ft | 366 kts | 223° |
| 2026-05-03 22:52 | 33.36250 | -79.56630 | 37420 ft | 369 kts | 223° |
| 2026-05-03 22:52 | 33.34144 | -79.58406 | 37164 ft | 371 kts | 223° |
| 2026-05-03 22:53 | 33.32030 | -79.60187 | 36900 ft | 372 kts | 223° |
| 2026-05-03 22:53 | 33.29904 | -79.61976 | 36646 ft | 374 kts | 223° |
| 2026-05-03 22:53 | 33.27772 | -79.63768 | 36395 ft | 375 kts | 223° |
| 2026-05-03 22:53 | 33.25635 | -79.65564 | 36161 ft | 377 kts | 222° |
| 2026-05-03 22:54 | 33.23484 | -79.67373 | 35875 ft | 379 kts | 221° |
| 2026-05-03 22:54 | 33.21323 | -79.69187 | 35643 ft | 381 kts | 221° |
| 2026-05-03 22:54 | 33.19153 | -79.71008 | 35393 ft | 382 kts | 221° |
| 2026-05-03 22:54 | 33.16971 | -79.72838 | 35149 ft | 384 kts | 221° |
| 2026-05-03 22:55 | 33.14781 | -79.74673 | 34913 ft | 386 kts | 221° |
| 2026-05-03 22:55 | 33.12578 | -79.76518 | 34679 ft | 388 kts | 221° |
| 2026-05-03 22:55 | 33.10366 | -79.78370 | 34446 ft | 389 kts | 221° |
| 2026-05-03 22:55 | 33.08146 | -79.80227 | 34243 ft | 392 kts | 221° |
| 2026-05-03 22:56 | 33.05900 | -79.82106 | 34170 ft | 395 kts | 221° |
| 2026-05-03 22:56 | 33.01388 | -79.85873 | 34128 ft | 395 kts | 221° |
| 2026-05-03 22:57 | 32.96891 | -79.89621 | 34119 ft | 394 kts | 221° |
| 2026-05-03 22:57 | 32.92395 | -79.93367 | 34110 ft | 395 kts | 221° |
| 2026-05-03 22:58 | 32.87890 | -79.97116 | 34105 ft | 395 kts | 221° |
| 2026-05-03 22:58 | 32.83375 | -80.00868 | 34113 ft | 396 kts | 221° |
| 2026-05-03 22:59 | 32.78862 | -80.04614 | 34126 ft | 396 kts | 221° |
| 2026-05-03 22:59 | 32.74343 | -80.08361 | 34111 ft | 395 kts | 220° |
| 2026-05-03 23:00 | 32.69832 | -80.12094 | 34121 ft | 395 kts | 220° |
| 2026-05-03 23:00 | 32.65320 | -80.15824 | 34130 ft | 395 kts | 220° |
| 2026-05-03 23:01 | 32.60805 | -80.19556 | 34138 ft | 396 kts | 220° |
| 2026-05-03 23:01 | 32.56306 | -80.23268 | 34125 ft | 397 kts | 220° |
| 2026-05-03 23:02 | 32.51753 | -80.26991 | 34123 ft | 399 kts | 218° |
| 2026-05-03 23:02 | 32.46877 | -80.30197 | 34117 ft | 402 kts | 214° |
| 2026-05-03 23:03 | 32.42054 | -80.33190 | 34120 ft | 402 kts | 214° |
| 2026-05-03 23:03 | 32.37111 | -80.36275 | 34120 ft | 402 kts | 214° |
| 2026-05-03 23:04 | 32.32176 | -80.39379 | 34123 ft | 402 kts | 214° |
| 2026-05-03 23:04 | 32.27247 | -80.42487 | 34119 ft | 402 kts | 214° |
| 2026-05-03 23:05 | 32.22321 | -80.45591 | 34120 ft | 401 kts | 214° |
| 2026-05-03 23:05 | 32.17398 | -80.48691 | 34120 ft | 401 kts | 214° |
| 2026-05-03 23:06 | 32.12474 | -80.51786 | 34118 ft | 401 kts | 214° |
| 2026-05-03 23:06 | 32.07580 | -80.54859 | 34137 ft | 401 kts | 214° |
| 2026-05-03 23:07 | 32.02646 | -80.57954 | 34132 ft | 402 kts | 214° |
| 2026-05-03 23:07 | 31.97699 | -80.61053 | 34108 ft | 402 kts | 214° |
| 2026-05-03 23:08 | 31.92751 | -80.64148 | 34115 ft | 402 kts | 214° |
| 2026-05-03 23:08 | 31.87804 | -80.67239 | 34122 ft | 403 kts | 214° |
| 2026-05-03 23:09 | 31.82852 | -80.70330 | 34127 ft | 403 kts | 214° |
| 2026-05-03 23:09 | 31.77897 | -80.73418 | 34128 ft | 403 kts | 214° |
| 2026-05-03 23:10 | 31.72939 | -80.76505 | 34095 ft | 403 kts | 214° |
| 2026-05-03 23:10 | 31.68017 | -80.79565 | 34116 ft | 403 kts | 214° |
| 2026-05-03 23:11 | 31.63059 | -80.82644 | 34132 ft | 403 kts | 214° |
| 2026-05-03 23:11 | 31.58096 | -80.85723 | 34131 ft | 403 kts | 214° |
| 2026-05-03 23:12 | 31.53130 | -80.88799 | 34132 ft | 403 kts | 214° |
| 2026-05-03 23:12 | 31.48166 | -80.91872 | 34142 ft | 404 kts | 214° |
| 2026-05-03 23:13 | 31.43195 | -80.94944 | 34118 ft | 403 kts | 214° |
| 2026-05-03 23:13 | 31.38232 | -80.98008 | 34131 ft | 403 kts | 214° |
| 2026-05-03 23:14 | 31.33273 | -81.01067 | 34133 ft | 403 kts | 214° |
| 2026-05-03 23:14 | 31.28288 | -81.04087 | 34127 ft | 406 kts | 210° |
| 2026-05-03 23:15 | 31.22777 | -81.05942 | 34130 ft | 419 kts | 198° |
| 2026-05-03 23:15 | 31.16868 | -81.06359 | 34128 ft | 429 kts | 190° |
| 2026-05-03 23:16 | 31.10890 | -81.06434 | 34128 ft | 430 kts | 190° |
| 2026-05-03 23:16 | 31.04912 | -81.06527 | 34137 ft | 430 kts | 190° |
| 2026-05-03 23:17 | 30.98936 | -81.06644 | 34136 ft | 429 kts | 191° |
| 2026-05-03 23:17 | 30.92957 | -81.06769 | 34101 ft | 429 kts | 191° |
| 2026-05-03 23:18 | 30.86991 | -81.06894 | 34125 ft | 429 kts | 191° |
| 2026-05-03 23:18 | 30.81061 | -81.07018 | 34137 ft | 429 kts | 191° |
| 2026-05-03 23:19 | 30.75090 | -81.07143 | 34136 ft | 429 kts | 191° |
| 2026-05-03 23:19 | 30.69118 | -81.07267 | 34137 ft | 429 kts | 191° |
| 2026-05-03 23:20 | 30.63147 | -81.07390 | 34102 ft | 428 kts | 192° |
| 2026-05-03 23:20 | 30.57226 | -81.07652 | 34128 ft | 424 kts | 193° |
| 2026-05-03 23:21 | 30.51335 | -81.08041 | 34127 ft | 424 kts | 194° |
| 2026-05-03 23:21 | 30.45442 | -81.08422 | 34133 ft | 424 kts | 193° |
| 2026-05-03 23:22 | 30.36602 | -81.08958 | 34130 ft | 424 kts | 193° |
| 2026-05-03 23:22 | 30.30709 | -81.09308 | 34132 ft | 424 kts | 193° |
| 2026-05-03 23:23 | 30.24816 | -81.09657 | 34133 ft | 424 kts | 193° |
| 2026-05-03 23:23 | 30.18921 | -81.10007 | 34132 ft | 424 kts | 193° |
| 2026-05-03 23:24 | 30.13029 | -81.10356 | 34131 ft | 424 kts | 193° |
| 2026-05-03 23:24 | 30.07141 | -81.10704 | 34120 ft | 422 kts | 194° |
| 2026-05-03 23:25 | 30.01279 | -81.11049 | 34128 ft | 421 kts | 194° |
| 2026-05-03 23:25 | 29.95429 | -81.11395 | 34115 ft | 420 kts | 194° |
| 2026-05-03 23:26 | 29.92530 | -81.11564 | 33800 ft | 413 kts | 194° |
| 2026-05-03 23:26 | 29.89689 | -81.11728 | 33549 ft | 406 kts | 194° |
| 2026-05-03 23:26 | 29.86884 | -81.11893 | 33281 ft | 401 kts | 194° |
| 2026-05-03 23:26 | 29.84099 | -81.12060 | 33026 ft | 401 kts | 193° |
| 2026-05-03 23:27 | 29.81306 | -81.12228 | 32743 ft | 405 kts | 193° |
| 2026-05-03 23:27 | 29.78459 | -81.12315 | 32498 ft | 413 kts | 191° |
| 2026-05-03 23:27 | 29.75577 | -81.12325 | 32246 ft | 415 kts | 190° |
| 2026-05-03 23:27 | 29.72694 | -81.12314 | 31984 ft | 412 kts | 190° |
| 2026-05-03 23:28 | 29.69877 | -81.12310 | 31742 ft | 410 kts | 190° |
| 2026-05-03 23:28 | 29.66994 | -81.12320 | 31491 ft | 408 kts | 190° |
| 2026-05-03 23:28 | 29.64159 | -81.12341 | 31237 ft | 406 kts | 190° |
| 2026-05-03 23:28 | 29.61337 | -81.12366 | 31000 ft | 406 kts | 190° |
| 2026-05-03 23:29 | 29.59470 | -81.12382 | 30836 ft | 405 kts | 189° |
| 2026-05-03 23:29 | 29.56622 | -81.12096 | 30569 ft | 421 kts | 176° |
| 2026-05-03 23:29 | 29.53801 | -81.11026 | 30375 ft | 429 kts | 169° |
| 2026-05-03 23:29 | 29.50997 | -81.09829 | 30074 ft | 430 kts | 169° |
| 2026-05-03 23:30 | 29.48199 | -81.08622 | 29801 ft | 430 kts | 169° |
| 2026-05-03 23:30 | 29.45398 | -81.07423 | 29528 ft | 429 kts | 169° |
| 2026-05-03 23:30 | 29.42602 | -81.06240 | 29258 ft | 428 kts | 169° |
| 2026-05-03 23:30 | 29.39802 | -81.05068 | 28985 ft | 431 kts | 169° |
| 2026-05-03 23:31 | 29.36938 | -81.03887 | 28745 ft | 444 kts | 169° |
| 2026-05-03 23:31 | 29.33984 | -81.02676 | 28498 ft | 457 kts | 169° |
| 2026-05-03 23:31 | 29.30957 | -81.01432 | 28252 ft | 466 kts | 168° |
| 2026-05-03 23:31 | 29.27898 | -81.00166 | 28135 ft | 466 kts | 168° |
| 2026-05-03 23:32 | 29.21859 | -80.97655 | 28077 ft | 460 kts | 168° |
| 2026-05-03 23:32 | 29.15839 | -80.95170 | 28092 ft | 460 kts | 169° |
| 2026-05-03 23:33 | 29.09825 | -80.92696 | 28099 ft | 459 kts | 169° |
| 2026-05-03 23:33 | 29.03811 | -80.90225 | 28088 ft | 459 kts | 168° |
| 2026-05-03 23:34 | 28.97808 | -80.87759 | 28097 ft | 458 kts | 169° |
| 2026-05-03 23:34 | 28.91811 | -80.85302 | 27921 ft | 458 kts | 169° |
| 2026-05-03 23:35 | 28.88809 | -80.84074 | 27824 ft | 457 kts | 169° |
| 2026-05-03 23:35 | 28.85813 | -80.82851 | 27721 ft | 458 kts | 169° |
| 2026-05-03 23:35 | 28.82813 | -80.81627 | 27606 ft | 459 kts | 169° |
| 2026-05-03 23:35 | 28.79806 | -80.80400 | 27471 ft | 459 kts | 169° |
| 2026-05-03 23:36 | 28.76795 | -80.79171 | 27357 ft | 460 kts | 169° |
| 2026-05-03 23:36 | 28.74488 | -80.78231 | 27265 ft | 460 kts | 168° |
| 2026-05-03 23:36 | 28.71497 | -80.77008 | 27126 ft | 449 kts | 169° |
| 2026-05-03 23:37 | 28.68611 | -80.75822 | 27006 ft | 433 kts | 169° |
| 2026-05-03 23:37 | 28.65826 | -80.74684 | 26895 ft | 418 kts | 169° |
| 2026-05-03 23:37 | 28.63128 | -80.73585 | 26772 ft | 406 kts | 170° |
| 2026-05-03 23:37 | 28.60475 | -80.72512 | 26698 ft | 405 kts | 170° |
| 2026-05-03 23:38 | 28.57811 | -80.71437 | 26617 ft | 408 kts | 170° |
| 2026-05-03 23:38 | 28.55123 | -80.70352 | 26518 ft | 411 kts | 170° |
| 2026-05-03 23:38 | 28.52422 | -80.69259 | 26417 ft | 413 kts | 169° |
| 2026-05-03 23:38 | 28.49711 | -80.68160 | 26338 ft | 414 kts | 169° |
| 2026-05-03 23:39 | 28.46997 | -80.67058 | 26230 ft | 414 kts | 169° |
| 2026-05-03 23:39 | 28.44290 | -80.65958 | 26119 ft | 413 kts | 169° |
| 2026-05-03 23:39 | 28.41589 | -80.64862 | 26021 ft | 411 kts | 169° |
| 2026-05-03 23:39 | 28.38901 | -80.63772 | 25903 ft | 410 kts | 169° |
| 2026-05-03 23:40 | 28.36220 | -80.62686 | 25796 ft | 408 kts | 170° |
| 2026-05-03 23:40 | 28.33555 | -80.61608 | 25629 ft | 406 kts | 170° |
| 2026-05-03 23:40 | 28.30897 | -80.60534 | 25546 ft | 405 kts | 170° |
| 2026-05-03 23:40 | 28.28247 | -80.59464 | 25442 ft | 403 kts | 170° |
| 2026-05-03 23:41 | 28.25605 | -80.58397 | 25345 ft | 402 kts | 170° |
| 2026-05-03 23:41 | 28.22969 | -80.57334 | 25247 ft | 402 kts | 170° |
| 2026-05-03 23:41 | 28.20336 | -80.56273 | 25148 ft | 402 kts | 170° |
| 2026-05-03 23:41 | 28.17701 | -80.55212 | 25027 ft | 402 kts | 170° |
| 2026-05-03 23:42 | 28.15065 | -80.54150 | 24925 ft | 402 kts | 170° |
| 2026-05-03 23:42 | 28.12428 | -80.53089 | 24820 ft | 402 kts | 169° |
| 2026-05-03 23:42 | 28.09796 | -80.52029 | 24728 ft | 401 kts | 169° |
| 2026-05-03 23:42 | 28.07167 | -80.50971 | 24628 ft | 401 kts | 169° |
| 2026-05-03 23:43 | 28.04542 | -80.49915 | 24528 ft | 400 kts | 169° |
| 2026-05-03 23:43 | 28.01922 | -80.48861 | 24407 ft | 399 kts | 169° |
| 2026-05-03 23:43 | 27.99304 | -80.47810 | 24319 ft | 399 kts | 169° |
| 2026-05-03 23:43 | 27.96691 | -80.46760 | 24224 ft | 398 kts | 169° |
| 2026-05-03 23:44 | 27.94098 | -80.45720 | 24126 ft | 398 kts | 170° |
| 2026-05-03 23:44 | 27.91493 | -80.44676 | 23961 ft | 399 kts | 169° |
| 2026-05-03 23:44 | 27.88842 | -80.43618 | 23284 ft | 406 kts | 169° |
| 2026-05-03 23:44 | 27.86219 | -80.42566 | 22654 ft | 405 kts | 169° |
| 2026-05-03 23:45 | 27.83569 | -80.41501 | 22029 ft | 403 kts | 169° |
| 2026-05-03 23:45 | 27.80897 | -80.40427 | 21412 ft | 402 kts | 169° |
| 2026-05-03 23:45 | 27.78269 | -80.39372 | 20812 ft | 400 kts | 168° |
| 2026-05-03 23:45 | 27.75650 | -80.38323 | 20215 ft | 399 kts | 168° |
| 2026-05-03 23:46 | 27.73041 | -80.37279 | 19618 ft | 397 kts | 168° |
| 2026-05-03 23:46 | 27.70434 | -80.36237 | 19018 ft | 396 kts | 168° |
| 2026-05-03 23:46 | 27.67872 | -80.35213 | 18422 ft | 396 kts | 168° |
| 2026-05-03 23:46 | 27.65250 | -80.34131 | 17762 ft | 397 kts | 165° |
| 2026-05-03 23:47 | 27.62733 | -80.32859 | 17189 ft | 396 kts | 161° |
| 2026-05-03 23:47 | 27.60261 | -80.31501 | 16628 ft | 394 kts | 160° |
| 2026-05-03 23:47 | 27.57814 | -80.30148 | 16071 ft | 390 kts | 160° |
| 2026-05-03 23:47 | 27.55377 | -80.28823 | 15531 ft | 387 kts | 160° |
| 2026-05-03 23:48 | 27.52949 | -80.27529 | 15002 ft | 384 kts | 161° |
| 2026-05-03 23:48 | 27.50535 | -80.26255 | 14466 ft | 382 kts | 160° |
| 2026-05-03 23:48 | 27.48134 | -80.24992 | 13954 ft | 379 kts | 160° |
| 2026-05-03 23:48 | 27.45782 | -80.23752 | 13504 ft | 368 kts | 160° |
| 2026-05-03 23:49 | 27.43520 | -80.22558 | 13086 ft | 357 kts | 160° |
| 2026-05-03 23:49 | 27.41305 | -80.21390 | 12691 ft | 347 kts | 160° |
| 2026-05-03 23:49 | 27.39143 | -80.20253 | 12320 ft | 339 kts | 160° |
| 2026-05-03 23:49 | 27.37018 | -80.19137 | 11963 ft | 335 kts | 160° |
| 2026-05-03 23:50 | 27.34903 | -80.18029 | 11608 ft | 336 kts | 160° |
| 2026-05-03 23:50 | 27.33493 | -80.17290 | 11379 ft | 339 kts | 160° |
| 2026-05-03 23:50 | 27.30631 | -80.15788 | 10883 ft | 337 kts | 159° |
| 2026-05-03 23:50 | 27.28533 | -80.14684 | 10515 ft | 329 kts | 159° |
| 2026-05-03 23:51 | 27.26489 | -80.13610 | 10164 ft | 321 kts | 159° |
| 2026-05-03 23:51 | 27.24481 | -80.12580 | 9913 ft | 310 kts | 160° |
| 2026-05-03 23:51 | 27.22570 | -80.11650 | 9908 ft | 290 kts | 161° |
| 2026-05-03 23:51 | 27.20730 | -80.10770 | 9536 ft | 286 kts | 161° |
| 2026-05-03 23:52 | 27.18916 | -80.09896 | 9127 ft | 284 kts | 161° |
| 2026-05-03 23:52 | 27.17097 | -80.09022 | 8708 ft | 283 kts | 160° |
| 2026-05-03 23:52 | 27.15306 | -80.08157 | 8367 ft | 279 kts | 161° |
| 2026-05-03 23:52 | 27.13526 | -80.07295 | 7985 ft | 277 kts | 160° |
| 2026-05-03 23:53 | 27.11765 | -80.06428 | 7622 ft | 276 kts | 159° |
| 2026-05-03 23:53 | 27.10007 | -80.05556 | 7220 ft | 276 kts | 161° |
| 2026-05-03 23:53 | 27.08256 | -80.04689 | 6891 ft | 273 kts | 161° |
| 2026-05-03 23:53 | 27.06514 | -80.03826 | 6505 ft | 274 kts | 160° |
| 2026-05-03 23:54 | 27.04781 | -80.02968 | 6080 ft | 270 kts | 159° |
| 2026-05-03 23:54 | 27.03069 | -80.02121 | 5573 ft | 268 kts | 157° |
| 2026-05-03 23:54 | 27.01381 | -80.01287 | 5193 ft | 263 kts | 157° |
| 2026-05-03 23:54 | 26.99719 | -80.00465 | 4859 ft | 260 kts | 156° |
| 2026-05-03 23:55 | 26.98067 | -79.99649 | 4519 ft | 260 kts | 155° |
| 2026-05-03 23:55 | 26.96386 | -79.98907 | 4180 ft | 261 kts | 166° |
| 2026-05-03 23:55 | 26.94589 | -79.99037 | 4030 ft | 265 kts | 200° |
| 2026-05-03 23:55 | 26.92975 | -80.00049 | 4003 ft | 268 kts | 215° |
| 2026-05-03 23:56 | 26.91502 | -80.01328 | 3997 ft | 266 kts | 218° |
| 2026-05-03 23:56 | 26.90071 | -80.02617 | 3989 ft | 263 kts | 218° |
| 2026-05-03 23:56 | 26.88631 | -80.03890 | 3986 ft | 265 kts | 217° |
| 2026-05-03 23:56 | 26.87171 | -80.05162 | 4002 ft | 267 kts | 217° |
| 2026-05-03 23:57 | 26.85699 | -80.06434 | 3995 ft | 266 kts | 217° |
| 2026-05-03 23:57 | 26.84241 | -80.07693 | 4001 ft | 263 kts | 217° |
| 2026-05-03 23:57 | 26.82789 | -80.08956 | 4017 ft | 266 kts | 217° |
| 2026-05-03 23:57 | 26.81375 | -80.10269 | 3994 ft | 262 kts | 229° |
| 2026-05-03 23:58 | 26.80585 | -80.12051 | 4006 ft | 257 kts | 257° |
| 2026-05-03 23:58 | 26.80343 | -80.14037 | 3999 ft | 258 kts | 266° |
| 2026-05-03 23:58 | 26.80219 | -80.16057 | 3999 ft | 261 kts | 266° |
| 2026-05-03 23:58 | 26.80097 | -80.18049 | 3982 ft | 249 kts | 266° |
| 2026-05-03 23:59 | 26.79975 | -80.19894 | 3967 ft | 227 kts | 267° |
| 2026-05-03 23:59 | 26.79706 | -80.21594 | 3531 ft | 227 kts | 243° |
| 2026-05-03 23:59 | 26.78577 | -80.22743 | 3269 ft | 218 kts | 199° |
| 2026-05-03 23:59 | 26.77150 | -80.23015 | 3162 ft | 204 kts | 178° |
| 2026-05-04 00:00 | 26.75707 | -80.22859 | 2840 ft | 218 kts | 169° |
| 2026-05-04 00:00 | 26.74218 | -80.22613 | 2541 ft | 213 kts | 168° |
| 2026-05-04 00:00 | 26.72791 | -80.22383 | 2367 ft | 201 kts | 168° |
| 2026-05-04 00:00 | 26.71445 | -80.22173 | 2214 ft | 189 kts | 168° |
| 2026-05-04 00:01 | 26.70171 | -80.21967 | 2070 ft | 181 kts | 164° |
| 2026-05-04 00:01 | 26.69162 | -80.21262 | 1844 ft | 170 kts | 116° |
| 2026-05-04 00:01 | 26.68884 | -80.20060 | 1690 ft | 158 kts | 96° |
| 2026-05-04 00:01 | 26.68720 | -80.18883 | 1467 ft | 148 kts | 95° |
| 2026-05-04 00:02 | 26.68629 | -80.17760 | 1294 ft | 143 kts | 90° |
| 2026-05-04 00:02 | 26.68576 | -80.16659 | 1109 ft | 142 kts | 90° |
| 2026-05-04 00:02 | 26.68529 | -80.15543 | 931 ft | 147 kts | 90° |
| 2026-05-04 00:02 | 26.68487 | -80.14375 | 765 ft | 152 kts | 90° |
| 2026-05-04 00:03 | 26.68426 | -80.13184 | 601 ft | 153 kts | 88° |
| 2026-05-04 00:03 | 26.68377 | -80.12020 | 316 ft | 146 kts | 88° |
| 2026-05-04 00:03 | 26.68324 | -80.10888 | 127 ft | 145 kts | 86° |
| 2026-05-04 00:03 | 26.68276 | -80.09775 | 22 ft | 136 kts | 91° |
| 2026-05-04 00:04 | 26.68241 | -80.08958 | 21 ft | 74 kts | 93° |
| 2026-05-04 00:04 | 26.68225 | -80.08625 | 21 ft | 19 kts | 93° |
| 2026-05-04 00:04 | 26.68218 | -80.08468 | 21 ft | 22 kts | 92° |
| 2026-05-04 00:04 | 26.68211 | -80.08289 | 21 ft | 23 kts | 92° |
| 2026-05-04 00:05 | 26.68239 | -80.08163 | 21 ft | 14 kts | 23° |
| 2026-05-04 00:05 | 26.68315 | -80.08185 | 21 ft | 11 kts | 290° |
| 2026-05-04 00:05 | 26.68320 | -80.08275 | 21 ft | 14 kts | 273° |
| 2026-05-04 00:05 | 26.68327 | -80.08436 | 21 ft | 25 kts | 273° |
| 2026-05-04 00:06 | 26.68335 | -80.08628 | 23 ft | 24 kts | 272° |
| 2026-05-04 00:06 | 26.68343 | -80.08806 | 21 ft | 22 kts | 273° |
| 2026-05-04 00:06 | 26.68351 | -80.08969 | 21 ft | 20 kts | 272° |
| 2026-05-04 00:06 | 26.68357 | -80.09115 | 21 ft | 18 kts | 273° |
| 2026-05-04 00:07 | 26.68363 | -80.09256 | 21 ft | 18 kts | 272° |
| 2026-05-04 00:07 | 26.68401 | -80.09362 | 21 ft | 13 kts | 317° |
| 2026-05-04 00:07 | 26.68467 | -80.09378 | 21 ft | 6 kts | 36° |
| 2026-05-04 00:07 | 26.68502 | -80.09334 | 21 ft | 9 kts | 47° |
| 2026-05-04 00:08 | 26.68546 | -80.09280 | 22 ft | 10 kts | 47° |
| 2026-05-04 00:08 | 26.68592 | -80.09224 | 22 ft | 10 kts | 47° |
| 2026-05-04 00:08 | 26.68619 | -80.09192 | 21 ft | 2 kts | 44° |
| 2026-05-04 00:08 | 26.68631 | -80.09195 | 21 ft | 2 kts | 336° |
| 2026-05-04 00:09 | 26.68648 | -80.09206 | 21 ft | 2 kts | 325° |
| 2026-05-04 00:09 | 26.68655 | -80.09213 | 21 ft | 2 kts | 316° |
| 2026-05-04 00:09 | 26.68665 | -80.09224 | 22 ft | 2 kts | 317° |
| 2026-05-04 00:09 | 26.68675 | -80.09234 | 21 ft | 2 kts | 317° |
| 2026-05-04 00:10 | 26.68684 | -80.09243 | 22 ft | 1 kts | 318° |
| 2026-05-04 00:10 | 26.68685 | -80.09244 | 22 ft | 0 kts | 318° |